Time;durP1;ratioP1;P1;durP2;ratioP2;P2;SDS_P1;SDS_P2;PMS_P1;PMS_P2;Temp;Humidity;BMP_temperature;BMP_pressure;BME280_temperature;BME280_humidity;BME280_pressure;Samples;Min_cycle;Max_cycle;Signal;HPM_P1;HPM_P2
2024/02/25 00:01:08;;;;;;;0.10;0.10;;;;;;;0.45;100.00;98577.53;6245153;23;20008;-74
2024/02/25 00:03:34;;;;;;;0.10;0.10;;;;;;;0.40;100.00;98574.75;6216707;23;20632;-75
2024/02/25 00:06:44;;;;;;;;;;;;;;;;;;;;;
2024/02/25 00:09:40;;;;;;;0.10;0.10;;;;;;;0.20;100.00;98550.22;6213671;23;20086;-73
2024/02/25 00:12:06;;;;;;;0.10;0.10;;;;;;;0.23;100.00;98552.44;6204503;23;20000;-72
2024/02/25 00:14:34;;;;;;;0.10;0.10;;;;;;;0.17;100.00;98543.47;6241057;23;20058;-74
2024/02/25 00:17:02;;;;;;;0.10;0.10;;;;;;;0.17;100.00;98530.03;6243278;23;20079;-73
2024/02/25 00:19:29;;;;;;;0.10;0.10;;;;;;;0.15;100.00;98535.63;6215527;23;20015;-74
2024/02/25 00:21:57;;;;;;;0.10;0.10;;;;;;;0.27;100.00;98554.38;6245085;23;20504;-73
2024/02/25 00:24:25;;;;;;;0.10;0.10;;;;;;;0.04;100.00;98512.34;6239757;23;20004;-72
2024/02/25 00:26:53;;;;;;;0.10;0.10;;;;;;;0.16;100.00;98534.59;6219029;23;20004;-73
2024/02/25 00:29:18;;;;;;;0.10;0.10;;;;;;;0.22;100.00;98545.41;6215939;23;20083;-74
2024/02/25 00:31:44;;;;;;;0.10;0.10;;;;;;;0.23;100.00;98547.03;6215510;23;20031;-74
2024/02/25 00:34:09;;;;;;;0.10;0.10;;;;;;;0.36;100.00;98562.03;6242003;23;20004;-74
2024/02/25 00:36:35;;;;;;;0.00;0.00;;;;;;;0.15;100.00;98538.31;6188642;23;20042;-74
2024/02/25 00:39:03;;;;;;;0.10;0.10;;;;;;;0.07;100.00;98522.59;6193245;23;20038;-75
2024/02/25 00:41:29;;;;;;;0.00;0.00;;;;;;;0.26;100.00;98558.13;6240588;23;20004;-74
2024/02/25 00:43:54;;;;;;;0.10;0.10;;;;;;;0.12;100.00;98549.56;6218794;23;20401;-76
2024/02/25 00:46:19;;;;;;;0.10;0.10;;;;;;;0.20;100.00;98563.66;6188199;23;20008;-75
2024/02/25 00:48:45;;;;;;;0.10;0.10;;;;;;;0.19;100.00;98562.88;6243804;23;20034;-75
2024/02/25 00:51:11;;;;;;;0.10;0.10;;;;;;;0.08;100.00;98536.88;6213095;23;20071;-74
2024/02/25 00:53:39;;;;;;;0.10;0.10;;;;;;;0.04;100.00;98531.16;6213539;23;20008;-73
2024/02/25 00:56:05;;;;;;;0.10;0.10;;;;;;;0.11;100.00;98545.25;6215297;23;20047;-75
2024/02/25 00:58:33;;;;;;;0.10;0.10;;;;;;;0.00;100.00;98524.66;6213761;23;20003;-76
2024/02/25 01:01:05;;;;;;;0.03;0.03;;;;;;;0.15;100.00;98546.41;6215683;23;20024;-74
2024/02/25 01:03:43;;;;;;;0.10;0.10;;;;;;;-0.04;100.00;98532.38;6217283;23;20565;-74
2024/02/25 01:06:08;;;;;;;0.10;0.10;;;;;;;-0.02;100.00;98529.44;6247525;23;20007;-74
2024/02/25 01:08:38;;;;;;;0.10;0.10;;;;;;;-0.07;100.00;98522.13;6247836;23;20075;-75
2024/02/25 01:11:05;;;;;;;0.10;0.10;;;;;;;-0.01;100.00;98521.13;6220453;23;20057;-75
2024/02/25 01:13:39;;;;;;;0.10;0.10;;;;;;;-0.05;100.00;98519.19;6194769;23;20010;-76
2024/02/25 01:16:04;;;;;;;0.10;0.10;;;;;;;-0.07;100.00;98515.94;6217057;23;20008;-75
2024/02/25 01:18:30;;;;;;;0.10;0.10;;;;;;;-0.07;100.00;98510.56;6219462;23;20043;-75
2024/02/25 01:20:56;;;;;;;0.10;0.10;;;;;;;-0.08;100.00;98508.94;6216522;23;20449;-75
2024/02/25 01:23:21;;;;;;;0.10;0.10;;;;;;;-0.03;100.00;98523.25;6218790;23;20004;-75
2024/02/25 01:25:47;;;;;;;0.05;0.05;;;;;;;-0.02;100.00;98524.88;6193169;23;20004;-77
2024/02/25 01:28:12;;;;;;;0.00;0.00;;;;;;;-0.04;100.00;98516.25;6214885;23;20035;-75
2024/02/25 01:30:38;;;;;;;0.10;0.10;;;;;;;-0.14;100.00;98499.97;6192904;23;20016;-75
2024/02/25 01:33:08;;;;;;;0.10;0.10;;;;;;;-0.04;100.00;98528.88;6190902;23;20391;-74
2024/02/25 01:35:33;;;;;;;0.10;0.10;;;;;;;-0.13;100.00;98509.66;6218984;23;20027;-75
2024/02/25 01:38:03;;;;;;;0.10;0.10;;;;;;;0.03;100.00;98526.84;6193053;23;20193;-74
2024/02/25 01:40:29;;;;;;;0.10;0.10;;;;;;;-0.13;100.00;98506.97;6195523;23;20011;-74
2024/02/25 01:43:17;;;;;;;0.10;0.10;;;;;;;-0.05;100.00;98522.66;6217242;23;19988;-73
2024/02/25 01:45:44;;;;;;;0.00;0.00;;;;;;;-0.27;100.00;98489.53;6247631;23;20028;-75
2024/02/25 01:48:10;;;;;;;0.10;0.10;;;;;;;-0.35;100.00;98488.06;6243758;23;20087;-76
2024/02/25 01:50:38;;;;;;;0.10;0.10;;;;;;;-0.30;100.00;98496.19;6246918;23;20000;-76
2024/02/25 01:53:04;;;;;;;0.10;0.10;;;;;;;-0.24;100.00;98505.97;6244103;22;20004;-75
2024/02/25 01:55:31;;;;;;;0.10;0.10;;;;;;;-0.28;100.00;98501.31;6216139;23;20381;-77
2024/02/25 01:57:58;;;;;;;0.10;0.10;;;;;;;-0.30;100.00;98501.56;6196541;23;20489;-76
2024/02/25 02:00:27;;;;;;;0.10;0.10;;;;;;;-0.34;100.00;98500.41;6215562;23;20026;-75
2024/02/25 02:03:20;;;;;;;0.10;0.10;;;;;;;-0.44;100.00;98495.69;6221802;23;20000;-76
2024/02/25 02:05:45;;;;;;;0.10;0.10;;;;;;;-0.37;100.00;98506.28;6196193;23;20324;-75
2024/02/25 02:08:19;;;;;;;0.10;0.10;;;;;;;-0.38;100.00;98502.78;6195675;23;20039;-76
2024/02/25 02:10:44;;;;;;;0.10;0.10;;;;;;;-0.52;100.00;98481.84;6217269;23;20067;-75
2024/02/25 02:13:12;;;;;;;0.10;0.10;;;;;;;-0.50;100.00;98475.16;6220197;23;20051;-75
2024/02/25 02:15:42;;;;;;;0.10;0.10;;;;;;;-0.43;100.00;98491.13;6222792;23;20035;-74
2024/02/25 02:18:12;;;;;;;0.10;0.10;;;;;;;-0.62;100.00;98456.44;6197834;23;20001;-75
2024/02/25 02:20:38;;;;;;;0.10;0.10;;;;;;;-0.51;100.00;98461.97;6223023;23;20004;-76
2024/02/25 02:23:07;;;;;;;0.10;0.10;;;;;;;-0.35;100.00;98477.31;6218436;23;20024;-76
2024/02/25 02:25:32;;;;;;;0.00;0.00;;;;;;;-0.39;100.00;98465.44;6248946;23;20335;-75
2024/02/25 02:27:58;;;;;;;0.10;0.10;;;;;;;-0.41;100.00;98462.16;6215255;23;20000;-75
2024/02/25 02:30:23;;;;;;;0.10;0.10;;;;;;;-0.40;100.00;98469.16;6195501;23;20015;-76
2024/02/25 02:32:52;;;;;;;0.10;0.10;;;;;;;-0.49;100.00;98455.31;6193888;23;20008;-75
2024/02/25 02:35:47;;;;;;;0.03;0.03;;;;;;;-0.38;100.00;98473.25;6220273;23;20363;-76
2024/02/25 02:38:28;;;;;;;0.03;0.03;;;;;;;-0.52;100.00;98455.00;6196483;23;20012;-75
2024/02/25 02:40:53;;;;;;;0.10;0.10;;;;;;;-0.63;100.00;98437.88;6248064;23;19988;-76
2024/02/25 02:43:18;;;;;;;0.10;0.10;;;;;;;-0.68;100.00;98446.66;6245048;23;20032;-76
2024/02/25 02:45:44;;;;;;;0.10;0.10;;;;;;;-0.69;100.00;98445.03;6247744;23;20031;-75
2024/02/25 02:48:10;;;;;;;0.10;0.10;;;;;;;-0.60;100.00;98475.81;6217184;23;20035;-76
2024/02/25 02:50:45;;;;;;;0.10;0.10;;;;;;;-0.56;100.00;98479.63;6196089;23;20008;-75
2024/02/25 02:53:10;;;;;;;0.10;0.10;;;;;;;-0.62;100.00;98467.16;6216508;23;20015;-76
2024/02/25 02:55:43;;;;;;;0.10;0.10;;;;;;;-0.76;100.00;98441.66;6196883;23;20004;-76
2024/02/25 02:58:19;;;;;;;0.10;0.10;;;;;;;-0.83;100.00;98428.41;6219888;23;20407;-76
2024/02/25 03:00:45;;;;;;;0.10;0.10;;;;;;;-0.74;100.00;98434.22;6195755;23;20044;-75
2024/02/25 03:03:10;;;;;;;0.10;0.10;;;;;;;-0.87;100.00;98421.88;6246242;23;20000;-75
2024/02/25 03:06:11;;;;;;;0.10;0.10;;;;;;;-0.77;100.00;98448.13;6213623;23;20066;-74
2024/02/25 03:08:44;;;;;;;0.10;0.10;;;;;;;-0.85;100.00;98429.69;6245071;23;20043;-77
2024/02/25 03:11:18;;;;;;;0.10;0.10;;;;;;;-0.67;100.00;98456.34;6243453;23;20011;-77
2024/02/25 03:13:44;;;;;;;;;;;;;;;-0.67;100.00;98453.66;6220007;23;20032;-77
2024/02/25 03:16:12;;;;;;;0.10;0.10;;;;;;;-0.85;100.00;98421.66;6215672;23;20282;-76
2024/02/25 03:18:40;;;;;;;0.10;0.10;;;;;;;-0.84;100.00;98434.03;6195088;23;20004;-76
2024/02/25 03:21:07;;;;;;;0.10;0.10;;;;;;;-0.88;100.00;98433.66;6216640;23;20434;-75
2024/02/25 03:23:36;;;;;;;0.10;0.10;;;;;;;-0.88;100.00;98429.13;6220745;23;20023;-76
2024/02/25 03:26:01;;;;;;;0.10;0.10;;;;;;;-0.78;100.00;98444.59;6216421;23;20027;-77
2024/02/25 03:28:27;;;;;;;0.10;0.10;;;;;;;-0.96;100.00;98421.47;6220833;23;20015;-76
2024/02/25 03:30:53;;;;;;;0.10;0.10;;;;;;;-0.88;100.00;98426.44;6219689;23;20012;-77
2024/02/25 03:33:20;;;;;;;0.10;0.10;;;;;;;-0.96;100.00;98423.34;6219345;23;20007;-77
2024/02/25 03:35:46;;;;;;;0.10;0.10;;;;;;;-0.85;100.00;98440.44;6218403;23;20004;-78
2024/02/25 03:38:12;;;;;;;0.10;0.10;;;;;;;-0.89;100.00;98437.44;6215352;23;20043;-75
2024/02/25 03:40:47;;;;;;;0.10;0.10;;;;;;;-1.06;100.00;98414.03;6191700;23;20019;-76
2024/02/25 03:43:14;;;;;;;0.10;0.10;;;;;;;-1.04;100.00;98424.50;6195502;23;20011;-76
2024/02/25 03:45:41;;;;;;;0.10;0.10;;;;;;;-1.02;100.00;98418.91;6222610;23;20379;-76
2024/02/25 03:48:10;;;;;;;0.10;0.10;;;;;;;-1.06;100.00;98419.38;6222789;23;20000;-77
2024/02/25 03:50:38;;;;;;;0.10;0.10;;;;;;;-1.09;100.00;98414.50;6224499;23;20008;-76
2024/02/25 03:53:04;;;;;;;0.10;0.10;;;;;;;-1.17;100.00;98400.66;6224735;23;19992;-76
2024/02/25 03:55:30;;;;;;;0.10;0.10;;;;;;;-1.09;100.00;98419.06;6193990;23;20119;-76
2024/02/25 03:57:58;;;;;;;0.10;0.10;;;;;;;-1.17;100.00;98401.47;6219587;23;20007;-77
2024/02/25 04:00:33;;;;;;;0.10;0.10;;;;;;;-1.19;100.00;98395.53;6192732;23;20020;-78
2024/02/25 04:03:01;;;;;;;0.10;0.10;;;;;;;-1.27;100.00;98394.06;6218151;23;20008;-76
2024/02/25 04:05:29;;;;;;;0.10;0.10;;;;;;;-1.27;100.00;98391.38;6219556;23;20002;-76
2024/02/25 04:07:54;;;;;;;0.10;0.10;;;;;;;-1.24;100.00;98403.50;6220424;23;20004;-76
2024/02/25 04:10:20;;;;;;;0.10;0.10;;;;;;;-1.30;100.00;98396.38;6192328;23;20008;-75
2024/02/25 04:12:45;;;;;;;0.10;0.10;;;;;;;-1.30;100.00;98388.34;6242476;23;20007;-76
2024/02/25 04:15:11;;;;;;;0.10;0.10;;;;;;;-1.17;100.00;98406.03;6219581;23;20012;-77
2024/02/25 04:17:36;;;;;;;0.10;0.10;;;;;;;-1.33;100.00;98376.25;6219766;23;20019;-76
2024/02/25 04:20:05;;;;;;;0.10;0.10;;;;;;;-1.09;100.00;98405.66;6196516;23;20004;-77
2024/02/25 04:22:59;;;;;;;0.10;0.10;;;;;;;-1.08;100.00;98396.53;6224146;23;20063;-77
2024/02/25 04:25:25;;;;;;;0.10;0.10;;;;;;;-1.27;100.00;98364.56;6250958;23;19996;-77
2024/02/25 04:27:50;;;;;;;0.10;0.10;;;;;;;-1.15;100.00;98377.13;6219437;23;20079;-77
2024/02/25 04:30:16;;;;;;;0.10;0.10;;;;;;;-0.95;100.00;98398.94;6222795;23;20061;-77
2024/02/25 04:32:46;;;;;;;0.10;0.10;;;;;;;-0.93;100.00;98402.19;6222651;23;20004;-76
2024/02/25 04:35:15;;;;;;;0.10;0.10;;;;;;;-1.12;100.00;98365.91;6196904;23;20096;-75
2024/02/25 04:37:40;;;;;;;0.10;0.10;;;;;;;-0.94;100.00;98389.81;6249343;23;19996;-75
2024/02/25 04:40:16;;;;;;;;;;;;;;;;;;;;;
2024/02/25 04:43:33;;;;;;;0.10;0.10;;;;;;;-0.97;100.00;98387.63;6202386;22;20087;-76
2024/02/25 04:45:59;;;;;;;0.10;0.10;;;;;;;-1.17;100.00;98355.06;6222348;23;20004;-76
2024/02/25 04:48:24;;;;;;;0.10;0.10;;;;;;;-1.13;100.00;98364.25;6193576;23;20004;-75
2024/02/25 04:50:58;;;;;;;0.10;0.10;;;;;;;-1.07;100.00;98357.94;6196440;23;20011;-75
2024/02/25 04:53:25;;;;;;;0.10;0.10;;;;;;;-0.96;100.00;98380.41;6169985;23;20039;-74
2024/02/25 04:56:17;;;;;;;0.10;0.10;;;;;;;-0.91;100.00;98381.28;6217942;23;20018;-74
2024/02/25 04:58:45;;;;;;;0.10;0.10;;;;;;;-1.06;100.00;98354.19;6213935;22;20701;-75
2024/02/25 05:01:10;;;;;;;0.10;0.10;;;;;;;-1.00;100.00;98358.59;6217596;23;20012;-75
2024/02/25 05:03:38;;;;;;;0.10;0.10;;;;;;;-1.03;100.00;98342.97;6218348;23;20042;-75
2024/02/25 05:06:04;;;;;;;0.10;0.10;;;;;;;-0.90;100.00;98358.78;6218175;23;20054;-76
2024/02/25 05:08:37;;;;;;;0.10;0.10;;;;;;;-0.61;100.00;98376.72;6193882;23;20012;-76
2024/02/25 05:11:03;;;;;;;0.10;0.10;;;;;;;-0.65;100.00;98344.16;6222029;23;20478;-76
2024/02/25 05:13:29;;;;;;;0.10;0.10;;;;;;;-0.58;100.00;98339.44;6220295;23;20062;-76
2024/02/25 05:15:55;;;;;;;0.10;0.10;;;;;;;-0.38;100.00;98360.44;6192670;23;19990;-77
2024/02/25 05:18:21;;;;;;;0.10;0.10;;;;;;;-0.31;100.00;98354.88;6250271;23;20004;-76
2024/02/25 05:21:21;;;;;;;0.10;0.10;;;;;;;-0.27;100.00;98350.66;6219925;23;20000;-75
2024/02/25 05:27:39;;;;;;;;;;;;;;;;;;;;;
2024/02/25 05:30:05;;;;;;;0.10;0.10;;;;;;;-0.33;100.00;98316.72;6216902;23;20091;-76
2024/02/25 05:32:30;;;;;;;0.10;0.10;;;;;;;-0.16;100.00;98323.94;6242340;23;20034;-75
2024/02/25 05:34:56;;;;;;;0.10;0.10;;;;;;;-0.32;100.00;98304.94;6241417;23;20035;-76
2024/02/25 05:37:22;;;;;;;0.10;0.10;;;;;;;-0.25;100.00;98310.09;6193911;23;20008;-76
2024/02/25 05:40:51;;;;;;;;;;;;;;;;;;;;;
2024/02/25 05:44:18;;;;;;;0.10;0.10;;;;;;;-0.20;100.00;98276.06;6241813;23;20155;-75
2024/02/25 05:46:44;;;;;;;0.10;0.10;;;;;;;0.24;100.00;98339.00;6171417;23;20004;-74
2024/02/25 05:49:10;;;;;;;0.10;0.10;;;;;;;0.27;100.00;98323.16;6196319;23;20008;-75
2024/02/25 05:51:35;;;;;;;0.10;0.10;;;;;;;0.28;100.00;98308.66;6243099;23;20011;-76
2024/02/25 05:54:00;;;;;;;0.10;0.10;;;;;;;0.44;100.00;98323.09;6247366;23;20004;-76
2024/02/25 05:56:26;;;;;;;0.10;0.10;;;;;;;0.45;100.00;98310.47;6219024;23;20004;-75
2024/02/25 05:58:52;;;;;;;0.00;0.00;;;;;;;0.58;100.00;98311.94;6218825;22;20080;-74
2024/02/25 06:01:17;;;;;;;0.10;0.10;;;;;;;0.71;100.00;98322.31;6171317;23;20008;-75
2024/02/25 06:03:45;;;;;;;0.10;0.10;;;;;;;0.69;100.00;98308.31;6216622;23;20012;-72
2024/02/25 06:06:15;;;;;;;0.10;0.10;;;;;;;0.81;100.00;98321.63;6219868;23;20026;-73
2024/02/25 06:08:48;;;;;;;0.10;0.10;;;;;;;0.79;100.00;98307.59;6244688;23;20000;-75
2024/02/25 06:11:24;;;;;;;0.10;0.10;;;;;;;0.93;100.00;98319.56;6222287;23;20020;-74
2024/02/25 06:13:50;;;;;;;0.10;0.10;;;;;;;0.85;100.00;98296.63;6195965;23;20000;-76
2024/02/25 06:16:19;;;;;;;0.10;0.10;;;;;;;0.77;100.00;98277.44;6193576;23;20018;-75
2024/02/25 06:18:47;;;;;;;0.10;0.10;;;;;;;0.85;100.00;98291.25;6222282;23;20004;-76
2024/02/25 06:21:13;;;;;;;0.10;0.10;;;;;;;0.97;100.00;98304.53;6216904;23;20666;-74
2024/02/25 06:23:39;;;;;;;0.10;0.10;;;;;;;0.90;100.00;98287.00;6220821;23;20004;-75
2024/02/25 06:26:12;;;;;;;0.10;0.10;;;;;;;1.02;100.00;98290.31;6191852;23;20023;-74
2024/02/25 06:28:57;;;;;;;;;;;;;;;;;;;;;
2024/02/25 06:31:22;;;;;;;;;;;;;;;1.18;100.00;98300.16;6218709;23;20083;-75
2024/02/25 06:33:48;;;;;;;0.10;0.10;;;;;;;1.22;100.00;98300.44;6221739;23;19888;-74
2024/02/25 06:36:26;;;;;;;0.00;0.00;;;;;;;1.05;100.00;98270.97;6218155;23;21004;-75
2024/02/25 06:38:51;;;;;;;0.10;0.10;;;;;;;1.17;100.00;98281.56;6198510;23;20339;-74
2024/02/25 06:41:23;;;;;;;0.10;0.10;;;;;;;1.26;100.00;98290.00;6193003;23;20011;-75
2024/02/25 06:43:51;;;;;;;0.10;0.10;;;;;;;1.28;100.00;98282.47;6246810;23;20026;-75
2024/02/25 06:46:24;;;;;;;0.10;0.10;;;;;;;1.26;100.00;98279.22;6244261;23;20075;-75
2024/02/25 06:48:50;;;;;;;0.10;0.10;;;;;;;1.24;100.00;98267.88;6223197;23;20004;-75
2024/02/25 06:51:23;;;;;;;0.10;0.10;;;;;;;1.19;100.00;98250.63;6222106;23;20003;-76
2024/02/25 06:53:53;;;;;;;0.10;0.10;;;;;;;1.33;100.00;98269.84;6250831;22;20012;-76
2024/02/25 06:56:24;;;;;;;0.10;0.10;;;;;;;1.40;100.00;98269.59;6219037;23;20413;-75
2024/02/25 06:58:54;;;;;;;0.05;0.05;;;;;;;1.39;100.00;98259.94;6220852;22;20015;-75
2024/02/25 07:01:37;;;;;;;0.10;0.10;;;;;;;1.20;100.00;98224.53;6172368;23;20023;-77
2024/02/25 07:04:03;;;;;;;0.10;0.10;;;;;;;1.41;100.00;98249.69;6219094;23;20450;-76
2024/02/25 07:06:31;;;;;;;0.10;0.10;;;;;;;1.44;100.00;98245.69;6219879;23;20000;-74
2024/02/25 07:08:57;;;;;;;0.10;0.10;;;;;;;1.54;100.00;98254.63;6219564;23;20339;-75
2024/02/25 07:11:28;;;;;;;0.10;0.10;;;;;;;1.59;100.00;98255.72;6170499;23;20012;-75
2024/02/25 07:13:53;;;;;;;0.10;0.10;;;;;;;1.56;100.00;98241.72;6193937;23;20039;-74
2024/02/25 07:16:21;;;;;;;0.08;0.08;;;;;;;1.63;100.00;98237.97;6221540;23;20012;-75
2024/02/25 07:18:52;;;;;;;0.10;0.10;;;;;;;1.61;100.00;98226.63;6195111;23;20026;-75
2024/02/25 07:21:19;;;;;;;0.10;0.10;;;;;;;1.66;100.00;98214.00;6194816;23;20419;-75
2024/02/25 07:23:44;;;;;;;0.10;0.10;;;;;;;1.78;100.00;98237.25;6221983;23;20007;-77
2024/02/25 07:26:12;;;;;;;0.10;0.10;;;;;;;1.87;100.00;98235.66;6244911;23;20000;-75
2024/02/25 07:28:42;;;;;;;0.10;0.10;;;;;;;2.01;100.00;98246.78;6198113;23;20012;-76
2024/02/25 07:31:18;;;;;;;0.10;0.10;;;;;;;2.06;100.00;98244.94;6221523;23;20012;-75
2024/02/25 07:33:45;;;;;;;0.10;0.10;;;;;;;2.02;100.00;98226.84;6220182;23;20458;-75
2024/02/25 07:36:11;;;;;;;0.10;0.10;;;;;;;2.08;100.00;98234.69;6249011;23;20023;-75
2024/02/25 07:38:40;;;;;;;0.10;0.10;;;;;;;2.07;100.00;98218.75;6198867;23;20015;-75
2024/02/25 07:41:16;;;;;;;0.10;0.10;;;;;;;2.10;100.00;98212.84;6243838;23;20007;-75
2024/02/25 07:43:42;;;;;;;0.10;0.10;;;;;;;2.35;100.00;98235.56;6222607;23;20343;-73
2024/02/25 07:46:13;;;;;;;0.10;0.10;;;;;;;2.42;100.00;98219.94;6198024;23;20040;-74
2024/02/25 07:48:52;;;;;;;0.10;0.10;;;;;;;2.66;100.00;98217.56;6222022;23;20481;-74
2024/02/25 07:51:21;;;;;;;0.00;0.00;;;;;;;2.81;100.00;98216.75;6179717;23;20012;-74
2024/02/25 07:53:57;;;;;;;0.10;0.10;;;;;;;2.79;100.00;98197.34;6248534;23;20004;-75
2024/02/25 07:56:27;;;;;;;0.10;0.10;;;;;;;2.83;100.00;98184.91;6219046;23;20015;-76
2024/02/25 07:59:31;;;;;;;;;;;;;;;;;;;;;
2024/02/25 08:02:23;;;;;;;;;;;;;;;;;;;;;
2024/02/25 08:04:49;;;;;;;0.10;0.10;;;;;;;3.60;100.00;98198.31;6246051;23;20678;-75
2024/02/25 08:07:30;;;;;;;0.10;0.10;;;;;;;3.74;100.00;98195.00;6219486;23;20023;-76
2024/02/25 08:09:57;;;;;;;0.10;0.10;;;;;;;4.14;100.00;98225.69;6195331;22;20011;-75
2024/02/25 08:12:50;;;;;;;0.10;0.10;;;;;;;4.09;100.00;98188.66;6192520;23;20020;-76
2024/02/25 08:15:20;;;;;;;0.00;0.00;;;;;;;4.56;100.00;98227.09;6195759;23;20320;-75
2024/02/25 08:17:53;;;;;;;0.00;0.00;;;;;;;4.63;100.00;98197.00;6243286;23;20004;-77
2024/02/25 08:20:21;;;;;;;0.10;0.10;;;;;;;5.07;100.00;98220.50;6222999;23;20008;-76
2024/02/25 08:23:08;;;;;;;0.00;0.00;;;;;;;5.15;100.00;98194.69;6244976;23;20053;-75
2024/02/25 08:25:34;;;;;;;0.10;0.10;;;;;;;5.35;100.00;98178.25;6176647;23;20007;-76
2024/02/25 08:28:32;;;;;;;0.08;0.08;;;;;;;5.66;100.00;98177.91;6233120;23;20080;-75
2024/02/25 08:31:13;;;;;;;;;;;;;;;;;;;;;
2024/02/25 11:09:22;;;;;;;0.00;0.00;;;;;;;10.41;100.00;97989.50;5131361;27;20207;-75
2024/02/25 11:12:19;;;;;;;0.08;0.08;;;;;;;11.62;97.07;98001.09;5109546;28;20077;-75
2024/02/25 11:14:59;;;;;;;0.08;0.08;;;;;;;12.03;91.10;97985.84;5103030;28;20092;-74
2024/02/25 11:17:35;;;;;;;0.10;0.10;;;;;;;12.28;87.55;97968.69;5122935;28;20136;-76
2024/02/25 11:22:50;;;;;;;0.00;0.00;;;;;;;11.98;85.68;97958.63;5102250;28;20131;-77
2024/02/25 11:25:41;;;;;;;0.00;0.00;;;;;;;12.07;85.84;97993.38;5086462;28;20031;-76
2024/02/25 11:28:12;;;;;;;0.00;0.00;;;;;;;11.72;84.47;97958.81;5108792;28;20022;-75
2024/02/25 11:30:50;;;;;;;0.00;0.00;;;;;;;11.66;86.55;97966.41;5124261;28;20019;-75
2024/02/25 11:33:43;;;;;;;0.00;0.00;;;;;;;12.03;85.22;97988.56;5105209;28;20024;-74
2024/02/25 11:36:11;;;;;;;0.00;0.00;;;;;;;11.91;82.32;97980.25;5107650;28;20114;-71
2024/02/25 11:38:40;;;;;;;0.00;0.00;;;;;;;11.62;82.60;97978.38;5106163;28;20044;-72
2024/02/25 11:41:30;;;;;;;0.10;0.10;;;;;;;11.35;83.44;97940.22;5105125;28;20471;-72
2024/02/25 11:44:10;;;;;;;;;;;;;;;;;;;;;
2024/02/25 11:50:27;;;;;;;;;;;;;;;;;;;;;
2024/02/25 11:57:21;;;;;;;;;;;;;;;;;;;;;
2024/02/25 11:59:47;;;;;;;0.00;0.00;;;;;;;10.05;90.96;97916.94;5098933;28;20477;-73
2024/02/25 12:02:35;;;;;;;0.00;0.00;;;;;;;9.56;92.22;97890.66;5106475;28;20118;-76
2024/02/25 12:05:31;;;;;;;0.00;0.00;;;;;;;9.35;94.17;97900.59;5093094;28;21885;-74
2024/02/25 12:08:02;;;;;;;0.00;0.00;;;;;;;9.32;94.61;97912.13;5093174;28;20043;-76
2024/02/25 12:10:49;;;;;;;0.00;0.00;;;;;;;9.28;95.35;97936.50;5090511;28;20233;-72
2024/02/25 12:13:29;;;;;;;0.00;0.00;;;;;;;9.13;95.97;97905.03;5110529;28;20077;-73
2024/02/25 12:15:58;;;;;;;0.00;0.00;;;;;;;9.01;97.31;97929.38;5064971;28;20027;-75
2024/02/25 12:18:23;;;;;;;0.00;0.00;;;;;;;8.81;100.00;97914.44;5103803;28;20027;-72
2024/02/25 12:21:05;;;;;;;;;;;;;;;;;;;;;
2024/02/25 12:23:40;;;;;;;0.00;0.00;;;;;;;8.59;100.00;97907.13;5093602;28;20038;-75
2024/02/25 12:26:58;;;;;;;;;;;;;;;;;;;;;
2024/02/25 12:30:34;;;;;;;;;;;;;;;;;;;;;
2024/02/25 12:33:08;;;;;;;0.00;0.00;;;;;;;7.91;100.00;97926.25;5111940;28;20554;-73
2024/02/25 12:35:38;;;;;;;0.00;0.00;;;;;;;7.76;100.00;97919.28;5084386;28;20031;-74
2024/02/25 12:38:03;;;;;;;0.00;0.00;;;;;;;7.59;100.00;97914.50;5093255;28;20036;-73
2024/02/25 12:40:31;;;;;;;0.00;0.00;;;;;;;7.53;100.00;97911.09;5110776;28;20084;-74
2024/02/25 12:43:00;;;;;;;0.00;0.00;;;;;;;7.56;100.00;97912.38;5104918;28;20028;-74
2024/02/25 12:45:29;;;;;;;0.00;0.00;;;;;;;7.33;100.00;97875.09;5112844;28;20024;-75
2024/02/25 12:47:55;;;;;;;0.10;0.10;;;;;;;7.46;100.00;97881.63;5102728;28;20031;-76
2024/02/25 12:50:24;;;;;;;0.10;0.10;;;;;;;7.71;100.00;97893.00;5081873;28;20027;-74
2024/02/25 12:52:49;;;;;;;0.10;0.10;;;;;;;7.95;100.00;97889.16;5087781;28;20051;-76
2024/02/25 12:55:14;;;;;;;0.10;0.10;;;;;;;8.16;100.00;97895.69;5090759;28;20102;-75
2024/02/25 12:57:41;;;;;;;0.00;0.00;;;;;;;8.19;100.00;97884.19;5074234;28;20028;-74
2024/02/25 13:00:55;;;;;;;0.00;0.00;;;;;;;8.14;100.00;97894.38;5059998;28;20361;-74
2024/02/25 13:03:23;;;;;;;0.10;0.10;;;;;;;7.94;100.00;97865.78;5066495;28;20031;-73
2024/02/25 13:05:48;;;;;;;0.10;0.10;;;;;;;7.97;100.00;97859.69;5111882;28;20477;-73
2024/02/25 13:08:17;;;;;;;0.00;0.00;;;;;;;7.93;100.00;97861.44;5077589;28;20043;-74
2024/02/25 13:10:43;;;;;;;0.00;0.00;;;;;;;7.98;100.00;97861.31;5090929;28;20020;-73
2024/02/25 13:13:09;;;;;;;0.00;0.00;;;;;;;7.88;100.00;97856.13;5085234;28;20016;-74
2024/02/25 13:15:34;;;;;;;0.00;0.00;;;;;;;7.96;100.00;97858.13;5086586;28;20032;-74
2024/02/25 13:18:00;;;;;;;0.00;0.00;;;;;;;7.94;100.00;97849.44;5083088;28;20099;-73
2024/02/25 13:20:28;;;;;;;0.03;0.03;;;;;;;7.97;100.00;97843.38;5079647;28;20035;-73
2024/02/25 13:22:54;;;;;;;0.03;0.03;;;;;;;7.90;100.00;97838.38;5086169;28;20125;-73
2024/02/25 13:25:19;;;;;;;0.00;0.00;;;;;;;8.00;100.00;97840.84;5071028;28;20020;-73
2024/02/25 13:27:45;;;;;;;0.10;0.10;;;;;;;7.99;100.00;97838.44;5085203;28;20116;-73
2024/02/25 13:30:13;;;;;;;0.00;0.00;;;;;;;7.92;100.00;97841.59;5073754;28;20028;-74
2024/02/25 13:32:39;;;;;;;0.00;0.00;;;;;;;7.90;100.00;97834.84;5084177;28;20040;-74
2024/02/25 13:35:05;;;;;;;0.00;0.00;;;;;;;7.88;100.00;97823.47;5091799;28;20085;-72
2024/02/25 13:38:45;;;;;;;0.00;0.00;;;;;;;7.86;100.00;97815.63;5086734;28;20056;-72
2024/02/25 13:40:46;;;;;;;0.00;0.00;;;;;;;7.81;100.00;97808.41;5072190;28;20032;-72
2024/02/25 13:43:50;;;;;;;;;;;;;;;;;;;;;
2024/02/25 13:50:06;;;;;;;0.00;0.00;;;;;;;7.59;100.00;97760.25;5082763;28;20054;-73
2024/02/25 13:53:09;;;;;;;0.00;0.00;;;;;;;7.79;100.00;97785.34;5062710;28;20039;-71
2024/02/25 13:56:13;;;;;;;0.00;0.00;;;;;;;7.86;100.00;97797.38;4998762;28;20034;-71
2024/02/25 13:58:39;;;;;;;0.00;0.00;;;;;;;7.73;100.00;97767.56;5057724;28;20058;-72
2024/02/25 14:01:05;;;;;;;0.00;0.00;;;;;;;7.65;100.00;97760.94;5075512;28;20099;-71
2024/02/25 14:03:31;;;;;;;0.00;0.00;;;;;;;7.82;100.00;97793.66;5069023;28;20028;-72
2024/02/25 14:05:59;;;;;;;0.10;0.10;;;;;;;7.67;100.00;97758.72;5082746;28;20035;-71
2024/02/25 14:08:24;;;;;;;0.00;0.00;;;;;;;7.66;100.00;97757.09;5073671;28;20044;-72
2024/02/25 14:10:55;;;;;;;0.08;0.08;;;;;;;7.61;100.00;97740.94;5089496;28;20024;-72
2024/02/25 14:13:25;;;;;;;0.00;0.00;;;;;;;7.82;100.00;97771.91;5052120;28;20024;-74
2024/02/25 14:15:53;;;;;;;0.00;0.00;;;;;;;7.63;100.00;97739.50;5067793;28;20061;-73
2024/02/25 14:18:22;;;;;;;0.00;0.00;;;;;;;7.58;100.00;97733.38;5086747;28;20044;-73
2024/02/25 14:20:51;;;;;;;0.10;0.10;;;;;;;7.68;100.00;97763.03;5083365;28;20028;-72
2024/02/25 14:23:16;;;;;;;0.10;0.10;;;;;;;7.54;100.00;97748.72;5071141;28;20623;-74
2024/02/25 14:25:42;;;;;;;0.10;0.10;;;;;;;7.63;100.00;97774.06;5082543;28;20015;-73
2024/02/25 14:28:11;;;;;;;0.00;0.00;;;;;;;7.52;100.00;97743.63;5088036;28;20024;-75
2024/02/25 14:30:39;;;;;;;0.00;0.00;;;;;;;7.60;100.00;97747.47;5087306;28;20031;-74
2024/02/25 14:33:22;;;;;;;0.00;0.00;;;;;;;7.63;100.00;97746.84;5080988;28;20024;-74
2024/02/25 14:36:22;;;;;;;0.00;0.00;;;;;;;7.56;100.00;97730.19;5070762;28;20477;-75
2024/02/25 14:42:41;;;;;;;0.00;0.00;;;;;;;7.45;100.00;97729.66;5084978;28;20127;-74
2024/02/25 14:45:07;;;;;;;0.00;0.00;;;;;;;7.51;100.00;97745.50;5065387;28;20034;-73
2024/02/25 14:47:40;;;;;;;0.10;0.10;;;;;;;7.37;100.00;97742.06;5076477;28;20048;-70
2024/02/25 14:50:08;;;;;;;0.00;0.00;;;;;;;7.34;100.00;97745.41;5068013;28;20535;-72
2024/02/25 14:52:34;;;;;;;0.08;0.08;;;;;;;7.26;100.00;97754.31;5065306;28;20039;-72
2024/02/25 14:55:05;;;;;;;0.00;0.00;;;;;;;7.11;100.00;97740.00;5068792;28;20029;-72
2024/02/25 14:57:31;;;;;;;0.10;0.10;;;;;;;6.98;100.00;97727.28;5048489;28;20024;-72
2024/02/25 15:00:04;;;;;;;0.00;0.00;;;;;;;6.79;100.00;97706.50;5045597;28;20039;-73
2024/02/25 15:02:44;;;;;;;0.00;0.00;;;;;;;6.86;100.00;97719.63;5082035;28;20088;-72
2024/02/25 15:05:10;;;;;;;0.10;0.10;;;;;;;6.84;100.00;97716.44;5062048;28;20444;-73
2024/02/25 15:07:39;;;;;;;0.00;0.00;;;;;;;7.03;100.00;97745.34;5086202;28;20044;-73
2024/02/25 15:10:05;;;;;;;0.00;0.00;;;;;;;7.04;100.00;97739.63;5085129;28;20028;-73